KHUT

Hutchinson Regional Airport

Hutchinson, Kansas, USA
METAR KHUT 190252Z 19010KT 10SM CLR 03/M06 A3004 RMK AO2 SLP178 T00331056 51002
Observed Flight Rules
Jan-19 @ 02:52 UTC (48 minutes ago) Visual Flight Rules
Wind Visibility Clouds
190° at 10 knots 10 miles
  • Clear skies
Temperatures Readings
Current 3°C / 37°F
Dewpoint -6°C / 21°F
Humidity 52%
Altimeter 30.04" Hg
Pressure 1017.8 hPa
Elevation 467
METAR KHUT 190252Z 19010KT 10SM CLR 03/M06 A3004 RMK AO2 SLP178 T00331056 51002
Observed Flight Rules
Jan-19 @ 02:52 UTC
(48 minutes ago)
VFR
Wind Visibility
190° at 10 knots 10 miles
Clouds
  • Clear skies
Temperature Dewpoint
3°C / 37°F -6°C / 21°F
Humidity Altimeter Pressure
52% 30.04" Hg 1017.8 hPa